sensor_id;sensor_type;location;lat;lon;timestamp;pressure;altitude;pressure_sealevel;temperature
16956;BMP180;8594;52.052;8.354;2024-03-17T00:02:25;101386.00;;;9.60
16956;BMP180;8594;52.052;8.354;2024-03-17T00:04:51;101392.00;;;9.40
16956;BMP180;8594;52.052;8.354;2024-03-17T00:07:19;101393.00;;;9.70
16956;BMP180;8594;52.052;8.354;2024-03-17T00:09:45;101391.00;;;9.20
16956;BMP180;8594;52.052;8.354;2024-03-17T00:12:12;101394.00;;;9.00
16956;BMP180;8594;52.052;8.354;2024-03-17T00:14:39;101394.00;;;9.70
16956;BMP180;8594;52.052;8.354;2024-03-17T00:17:05;101395.00;;;10.30
16956;BMP180;8594;52.052;8.354;2024-03-17T00:19:32;101395.00;;;9.90
16956;BMP180;8594;52.052;8.354;2024-03-17T00:21:58;101393.00;;;9.70
16956;BMP180;8594;52.052;8.354;2024-03-17T00:24:26;101387.00;;;9.10
16956;BMP180;8594;52.052;8.354;2024-03-17T00:26:59;101384.00;;;9.40
16956;BMP180;8594;52.052;8.354;2024-03-17T00:29:26;101383.00;;;9.50
16956;BMP180;8594;52.052;8.354;2024-03-17T00:31:53;101380.00;;;9.40
16956;BMP180;8594;52.052;8.354;2024-03-17T00:34:20;101384.00;;;9.70
16956;BMP180;8594;52.052;8.354;2024-03-17T00:36:46;101384.00;;;9.80
16956;BMP180;8594;52.052;8.354;2024-03-17T00:39:13;101381.00;;;9.60
16956;BMP180;8594;52.052;8.354;2024-03-17T00:41:41;101384.00;;;10.30
16956;BMP180;8594;52.052;8.354;2024-03-17T00:44:07;101387.00;;;9.80
16956;BMP180;8594;52.052;8.354;2024-03-17T00:46:33;101382.00;;;9.70
16956;BMP180;8594;52.052;8.354;2024-03-17T00:49:00;101373.00;;;9.50
16956;BMP180;8594;52.052;8.354;2024-03-17T00:51:26;101372.00;;;9.70
16956;BMP180;8594;52.052;8.354;2024-03-17T00:53:53;101373.00;;;9.80
16956;BMP180;8594;52.052;8.354;2024-03-17T00:56:18;101373.00;;;10.00
16956;BMP180;8594;52.052;8.354;2024-03-17T00:58:47;101376.00;;;9.90
16956;BMP180;8594;52.052;8.354;2024-03-17T01:01:13;101376.00;;;10.00
16956;BMP180;8594;52.052;8.354;2024-03-17T01:03:40;101361.00;;;9.80
16956;BMP180;8594;52.052;8.354;2024-03-17T01:06:06;101365.00;;;9.90
16956;BMP180;8594;52.052;8.354;2024-03-17T01:08:32;101363.00;;;9.80
16956;BMP180;8594;52.052;8.354;2024-03-17T01:10:58;101364.00;;;9.40
16956;BMP180;8594;52.052;8.354;2024-03-17T01:13:25;101359.00;;;9.30
16956;BMP180;8594;52.052;8.354;2024-03-17T01:15:53;101359.00;;;9.30
16956;BMP180;8594;52.052;8.354;2024-03-17T01:18:19;101364.00;;;9.60
16956;BMP180;8594;52.052;8.354;2024-03-17T01:20:45;101366.00;;;9.80
16956;BMP180;8594;52.052;8.354;2024-03-17T01:23:12;101362.00;;;10.00
16956;BMP180;8594;52.052;8.354;2024-03-17T01:25:39;101351.00;;;9.50
16956;BMP180;8594;52.052;8.354;2024-03-17T01:28:06;101352.00;;;9.60
16956;BMP180;8594;52.052;8.354;2024-03-17T01:30:32;101357.00;;;9.30
16956;BMP180;8594;52.052;8.354;2024-03-17T01:33:01;101355.00;;;9.70
16956;BMP180;8594;52.052;8.354;2024-03-17T01:35:27;101335.00;;;9.80
16956;BMP180;8594;52.052;8.354;2024-03-17T01:37:53;101342.00;;;10.30
16956;BMP180;8594;52.052;8.354;2024-03-17T01:40:19;101348.00;;;10.20
16956;BMP180;8594;52.052;8.354;2024-03-17T01:42:47;101339.00;;;9.70
16956;BMP180;8594;52.052;8.354;2024-03-17T01:45:28;101338.00;;;9.90
16956;BMP180;8594;52.052;8.354;2024-03-17T01:47:55;101329.00;;;9.40
16956;BMP180;8594;52.052;8.354;2024-03-17T01:50:26;101322.00;;;9.60
16956;BMP180;8594;52.052;8.354;2024-03-17T01:52:57;101324.00;;;9.60
16956;BMP180;8594;52.052;8.354;2024-03-17T01:55:26;101320.00;;;9.60
16956;BMP180;8594;52.052;8.354;2024-03-17T01:57:53;101324.00;;;10.00
16956;BMP180;8594;52.052;8.354;2024-03-17T02:00:20;101319.00;;;9.50
16956;BMP180;8594;52.052;8.354;2024-03-17T02:02:47;101315.00;;;9.40
16956;BMP180;8594;52.052;8.354;2024-03-17T02:05:14;101309.00;;;9.40
16956;BMP180;8594;52.052;8.354;2024-03-17T02:07:41;101314.00;;;9.50
16956;BMP180;8594;52.052;8.354;2024-03-17T02:10:08;101310.00;;;9.40
16956;BMP180;8594;52.052;8.354;2024-03-17T02:12:35;101306.00;;;10.10
16956;BMP180;8594;52.052;8.354;2024-03-17T02:15:03;101310.00;;;10.20
16956;BMP180;8594;52.052;8.354;2024-03-17T02:17:31;101300.00;;;10.30
16956;BMP180;8594;52.052;8.354;2024-03-17T02:19:58;101306.00;;;9.90
16956;BMP180;8594;52.052;8.354;2024-03-17T02:22:26;101302.00;;;9.70
16956;BMP180;8594;52.052;8.354;2024-03-17T02:24:53;101295.00;;;10.00
16956;BMP180;8594;52.052;8.354;2024-03-17T02:27:20;101306.00;;;10.10
16956;BMP180;8594;52.052;8.354;2024-03-17T02:29:46;101305.00;;;10.20
16956;BMP180;8594;52.052;8.354;2024-03-17T02:32:12;101298.00;;;9.70
16956;BMP180;8594;52.052;8.354;2024-03-17T02:34:38;101300.00;;;9.50
16956;BMP180;8594;52.052;8.354;2024-03-17T02:37:06;101304.00;;;9.20
16956;BMP180;8594;52.052;8.354;2024-03-17T02:39:34;101304.00;;;9.00
16956;BMP180;8594;52.052;8.354;2024-03-17T02:42:02;101302.00;;;8.90
16956;BMP180;8594;52.052;8.354;2024-03-17T02:44:30;101301.00;;;8.40
16956;BMP180;8594;52.052;8.354;2024-03-17T02:46:56;101301.00;;;8.40
16956;BMP180;8594;52.052;8.354;2024-03-17T02:49:24;101295.00;;;8.00
16956;BMP180;8594;52.052;8.354;2024-03-17T02:51:52;101298.00;;;8.20
16956;BMP180;8594;52.052;8.354;2024-03-17T02:54:19;101297.00;;;8.40
16956;BMP180;8594;52.052;8.354;2024-03-17T02:56:47;101305.00;;;8.60
16956;BMP180;8594;52.052;8.354;2024-03-17T02:59:14;101299.00;;;8.40
16956;BMP180;8594;52.052;8.354;2024-03-17T03:01:41;101302.00;;;8.90
16956;BMP180;8594;52.052;8.354;2024-03-17T03:04:08;101298.00;;;9.10
16956;BMP180;8594;52.052;8.354;2024-03-17T03:06:35;101293.00;;;8.70
16956;BMP180;8594;52.052;8.354;2024-03-17T03:09:02;101286.00;;;9.30
16956;BMP180;8594;52.052;8.354;2024-03-17T03:11:31;101299.00;;;9.60
16956;BMP180;8594;52.052;8.354;2024-03-17T03:13:59;101281.00;;;9.60
16956;BMP180;8594;52.052;8.354;2024-03-17T03:16:25;101290.00;;;9.70
16956;BMP180;8594;52.052;8.354;2024-03-17T03:18:52;101281.00;;;8.90
16956;BMP180;8594;52.052;8.354;2024-03-17T03:21:19;101284.00;;;8.90
16956;BMP180;8594;52.052;8.354;2024-03-17T03:23:47;101287.00;;;8.50
16956;BMP180;8594;52.052;8.354;2024-03-17T03:26:14;101284.00;;;8.70
16956;BMP180;8594;52.052;8.354;2024-03-17T03:28:40;101284.00;;;8.70
16956;BMP180;8594;52.052;8.354;2024-03-17T03:31:12;101279.00;;;9.00
16956;BMP180;8594;52.052;8.354;2024-03-17T03:33:39;101288.00;;;9.20
16956;BMP180;8594;52.052;8.354;2024-03-17T03:36:09;101286.00;;;9.10
16956;BMP180;8594;52.052;8.354;2024-03-17T03:38:36;101288.00;;;9.10
16956;BMP180;8594;52.052;8.354;2024-03-17T03:41:08;101284.00;;;9.00
16956;BMP180;8594;52.052;8.354;2024-03-17T03:43:35;101290.00;;;9.20
16956;BMP180;8594;52.052;8.354;2024-03-17T03:46:02;101292.00;;;9.10
16956;BMP180;8594;52.052;8.354;2024-03-17T03:48:31;101288.00;;;9.40
16956;BMP180;8594;52.052;8.354;2024-03-17T03:51:03;101286.00;;;9.10
16956;BMP180;8594;52.052;8.354;2024-03-17T03:53:30;101295.00;;;9.00
16956;BMP180;8594;52.052;8.354;2024-03-17T03:55:57;101287.00;;;9.10
16956;BMP180;8594;52.052;8.354;2024-03-17T03:58:24;101290.00;;;8.90
16956;BMP180;8594;52.052;8.354;2024-03-17T04:00:51;101292.00;;;8.70
16956;BMP180;8594;52.052;8.354;2024-03-17T04:03:18;101292.00;;;8.90
16956;BMP180;8594;52.052;8.354;2024-03-17T04:05:46;101302.00;;;9.10
16956;BMP180;8594;52.052;8.354;2024-03-17T04:08:12;101299.00;;;9.50
16956;BMP180;8594;52.052;8.354;2024-03-17T04:10:39;101300.00;;;9.40
16956;BMP180;8594;52.052;8.354;2024-03-17T04:13:06;101304.00;;;9.70
16956;BMP180;8594;52.052;8.354;2024-03-17T04:15:33;101302.00;;;9.50
16956;BMP180;8594;52.052;8.354;2024-03-17T04:18:00;101300.00;;;9.70
16956;BMP180;8594;52.052;8.354;2024-03-17T04:20:27;101296.00;;;9.70
16956;BMP180;8594;52.052;8.354;2024-03-17T04:22:55;101294.00;;;9.10
16956;BMP180;8594;52.052;8.354;2024-03-17T04:25:22;101289.00;;;8.80
16956;BMP180;8594;52.052;8.354;2024-03-17T04:27:49;101291.00;;;8.40
16956;BMP180;8594;52.052;8.354;2024-03-17T04:30:15;101293.00;;;8.70
16956;BMP180;8594;52.052;8.354;2024-03-17T04:32:42;101296.00;;;8.70
16956;BMP180;8594;52.052;8.354;2024-03-17T04:35:09;101297.00;;;8.90
16956;BMP180;8594;52.052;8.354;2024-03-17T04:37:36;101297.00;;;8.80
16956;BMP180;8594;52.052;8.354;2024-03-17T04:40:07;101300.00;;;8.80
16956;BMP180;8594;52.052;8.354;2024-03-17T04:42:37;101307.00;;;9.10
16956;BMP180;8594;52.052;8.354;2024-03-17T04:45:07;101309.00;;;9.00
16956;BMP180;8594;52.052;8.354;2024-03-17T04:47:35;101307.00;;;8.80
16956;BMP180;8594;52.052;8.354;2024-03-17T04:50:03;101306.00;;;8.10
16956;BMP180;8594;52.052;8.354;2024-03-17T04:52:30;101296.00;;;8.10
16956;BMP180;8594;52.052;8.354;2024-03-17T04:54:57;101307.00;;;8.00
16956;BMP180;8594;52.052;8.354;2024-03-17T04:57:25;101306.00;;;8.00
16956;BMP180;8594;52.052;8.354;2024-03-17T04:59:52;101307.00;;;7.90
16956;BMP180;8594;52.052;8.354;2024-03-17T05:02:19;101304.00;;;8.00
16956;BMP180;8594;52.052;8.354;2024-03-17T05:04:45;101312.00;;;8.20
16956;BMP180;8594;52.052;8.354;2024-03-17T05:07:13;101317.00;;;8.90
16956;BMP180;8594;52.052;8.354;2024-03-17T05:09:40;101314.00;;;9.00
16956;BMP180;8594;52.052;8.354;2024-03-17T05:12:07;101308.00;;;9.00
16956;BMP180;8594;52.052;8.354;2024-03-17T05:14:35;101321.00;;;9.00
16956;BMP180;8594;52.052;8.354;2024-03-17T05:17:02;101321.00;;;9.40
16956;BMP180;8594;52.052;8.354;2024-03-17T05:19:29;101305.00;;;9.30
16956;BMP180;8594;52.052;8.354;2024-03-17T05:21:55;101311.00;;;9.50
16956;BMP180;8594;52.052;8.354;2024-03-17T05:24:22;101306.00;;;9.10
16956;BMP180;8594;52.052;8.354;2024-03-17T05:26:49;101307.00;;;9.10
16956;BMP180;8594;52.052;8.354;2024-03-17T05:29:16;101316.00;;;9.00
16956;BMP180;8594;52.052;8.354;2024-03-17T05:31:44;101312.00;;;9.00
16956;BMP180;8594;52.052;8.354;2024-03-17T05:34:11;101311.00;;;9.00
16956;BMP180;8594;52.052;8.354;2024-03-17T05:36:37;101314.00;;;9.10
16956;BMP180;8594;52.052;8.354;2024-03-17T05:39:04;101299.00;;;8.80
16956;BMP180;8594;52.052;8.354;2024-03-17T05:41:31;101304.00;;;8.80
16956;BMP180;8594;52.052;8.354;2024-03-17T05:43:58;101300.00;;;9.20
16956;BMP180;8594;52.052;8.354;2024-03-17T05:46:25;101299.00;;;9.70
16956;BMP180;8594;52.052;8.354;2024-03-17T05:48:54;101305.00;;;9.90
16956;BMP180;8594;52.052;8.354;2024-03-17T05:51:21;101292.00;;;10.00
16956;BMP180;8594;52.052;8.354;2024-03-17T05:53:51;101297.00;;;10.00
16956;BMP180;8594;52.052;8.354;2024-03-17T05:56:17;101295.00;;;9.90
16956;BMP180;8594;52.052;8.354;2024-03-17T05:58:44;101294.00;;;9.90
16956;BMP180;8594;52.052;8.354;2024-03-17T06:01:12;101298.00;;;9.80
16956;BMP180;8594;52.052;8.354;2024-03-17T06:03:39;101295.00;;;9.80
16956;BMP180;8594;52.052;8.354;2024-03-17T06:06:08;101292.00;;;9.80
16956;BMP180;8594;52.052;8.354;2024-03-17T06:08:37;101293.00;;;9.60
16956;BMP180;8594;52.052;8.354;2024-03-17T06:11:04;101286.00;;;9.90
16956;BMP180;8594;52.052;8.354;2024-03-17T06:13:32;101288.00;;;10.00
16956;BMP180;8594;52.052;8.354;2024-03-17T06:15:58;101278.00;;;10.00
16956;BMP180;8594;52.052;8.354;2024-03-17T06:18:27;101284.00;;;9.80
16956;BMP180;8594;52.052;8.354;2024-03-17T06:20:55;101277.00;;;10.20
16956;BMP180;8594;52.052;8.354;2024-03-17T06:23:26;101278.00;;;10.20
16956;BMP180;8594;52.052;8.354;2024-03-17T06:25:54;101283.00;;;10.50
16956;BMP180;8594;52.052;8.354;2024-03-17T06:28:22;101280.00;;;10.10
16956;BMP180;8594;52.052;8.354;2024-03-17T06:30:57;101287.00;;;10.10
16956;BMP180;8594;52.052;8.354;2024-03-17T06:33:26;101287.00;;;10.20
16956;BMP180;8594;52.052;8.354;2024-03-17T06:35:54;101296.00;;;10.40
16956;BMP180;8594;52.052;8.354;2024-03-17T06:38:20;101297.00;;;10.60
16956;BMP180;8594;52.052;8.354;2024-03-17T06:40:52;101299.00;;;10.90
16956;BMP180;8594;52.052;8.354;2024-03-17T06:43:19;101290.00;;;10.90
16956;BMP180;8594;52.052;8.354;2024-03-17T06:45:57;101294.00;;;11.10
16956;BMP180;8594;52.052;8.354;2024-03-17T06:48:25;101290.00;;;11.30
16956;BMP180;8594;52.052;8.354;2024-03-17T06:50:53;101301.00;;;11.30
16956;BMP180;8594;52.052;8.354;2024-03-17T06:53:21;101297.00;;;10.90
16956;BMP180;8594;52.052;8.354;2024-03-17T06:55:54;101293.00;;;11.20
16956;BMP180;8594;52.052;8.354;2024-03-17T06:58:21;101304.00;;;11.40
16956;BMP180;8594;52.052;8.354;2024-03-17T07:00:53;101298.00;;;11.10
16956;BMP180;8594;52.052;8.354;2024-03-17T07:03:22;101306.00;;;11.40
16956;BMP180;8594;52.052;8.354;2024-03-17T07:05:54;101304.00;;;11.40
16956;BMP180;8594;52.052;8.354;2024-03-17T07:08:21;101307.00;;;11.60
16956;BMP180;8594;52.052;8.354;2024-03-17T07:10:57;101308.00;;;11.50
16956;BMP180;8594;52.052;8.354;2024-03-17T07:13:25;101301.00;;;12.10
16956;BMP180;8594;52.052;8.354;2024-03-17T07:15:52;101298.00;;;12.70
16956;BMP180;8594;52.052;8.354;2024-03-17T07:18:18;101292.00;;;12.80
16956;BMP180;8594;52.052;8.354;2024-03-17T07:20:45;101287.00;;;13.40
16956;BMP180;8594;52.052;8.354;2024-03-17T07:23:13;101293.00;;;14.00
16956;BMP180;8594;52.052;8.354;2024-03-17T07:25:40;101293.00;;;14.00
16956;BMP180;8594;52.052;8.354;2024-03-17T07:28:09;101291.00;;;13.90
16956;BMP180;8594;52.052;8.354;2024-03-17T07:30:35;101298.00;;;14.30
16956;BMP180;8594;52.052;8.354;2024-03-17T07:33:03;101293.00;;;14.60
16956;BMP180;8594;52.052;8.354;2024-03-17T07:35:29;101294.00;;;15.20
16956;BMP180;8594;52.052;8.354;2024-03-17T07:37:56;101295.00;;;16.00
16956;BMP180;8594;52.052;8.354;2024-03-17T07:40:23;101294.00;;;16.30
16956;BMP180;8594;52.052;8.354;2024-03-17T07:42:50;101285.00;;;17.00
16956;BMP180;8594;52.052;8.354;2024-03-17T07:45:18;101281.00;;;16.70
16956;BMP180;8594;52.052;8.354;2024-03-17T07:47:44;101274.00;;;17.20
16956;BMP180;8594;52.052;8.354;2024-03-17T07:50:11;101273.00;;;17.10
16956;BMP180;8594;52.052;8.354;2024-03-17T07:52:38;101282.00;;;17.60
16956;BMP180;8594;52.052;8.354;2024-03-17T07:55:05;101280.00;;;17.90
16956;BMP180;8594;52.052;8.354;2024-03-17T07:57:34;101286.00;;;17.70
16956;BMP180;8594;52.052;8.354;2024-03-17T08:00:02;101281.00;;;18.10
16956;BMP180;8594;52.052;8.354;2024-03-17T08:02:31;101276.00;;;17.90
16956;BMP180;8594;52.052;8.354;2024-03-17T08:04:57;101281.00;;;17.90
16956;BMP180;8594;52.052;8.354;2024-03-17T08:07:24;101286.00;;;18.70
16956;BMP180;8594;52.052;8.354;2024-03-17T08:09:51;101286.00;;;19.40
16956;BMP180;8594;52.052;8.354;2024-03-17T08:12:18;101286.00;;;19.30
16956;BMP180;8594;52.052;8.354;2024-03-17T08:14:43;101287.00;;;19.00
16956;BMP180;8594;52.052;8.354;2024-03-17T08:17:10;101285.00;;;19.70
16956;BMP180;8594;52.052;8.354;2024-03-17T08:19:38;101281.00;;;19.70
16956;BMP180;8594;52.052;8.354;2024-03-17T08:22:06;101279.00;;;19.50
16956;BMP180;8594;52.052;8.354;2024-03-17T08:24:33;101282.00;;;19.70
16956;BMP180;8594;52.052;8.354;2024-03-17T08:27:00;101282.00;;;18.70
16956;BMP180;8594;52.052;8.354;2024-03-17T08:29:26;101286.00;;;19.50
16956;BMP180;8594;52.052;8.354;2024-03-17T08:31:53;101286.00;;;19.80
16956;BMP180;8594;52.052;8.354;2024-03-17T08:34:20;101293.00;;;20.30
16956;BMP180;8594;52.052;8.354;2024-03-17T08:36:48;101296.00;;;20.20
16956;BMP180;8594;52.052;8.354;2024-03-17T08:39:15;101304.00;;;20.10
16956;BMP180;8594;52.052;8.354;2024-03-17T08:41:41;101301.00;;;20.20
16956;BMP180;8594;52.052;8.354;2024-03-17T08:44:10;101304.00;;;21.10
16956;BMP180;8594;52.052;8.354;2024-03-17T08:46:36;101300.00;;;20.70
16956;BMP180;8594;52.052;8.354;2024-03-17T08:49:03;101303.00;;;20.70
16956;BMP180;8594;52.052;8.354;2024-03-17T08:51:30;101306.00;;;20.70
16956;BMP180;8594;52.052;8.354;2024-03-17T08:53:59;101306.00;;;20.20
16956;BMP180;8594;52.052;8.354;2024-03-17T08:56:25;101302.00;;;20.80
16956;BMP180;8594;52.052;8.354;2024-03-17T08:58:52;101305.00;;;20.80
16956;BMP180;8594;52.052;8.354;2024-03-17T09:01:19;101306.00;;;20.60
16956;BMP180;8594;52.052;8.354;2024-03-17T09:03:46;101312.00;;;21.00
16956;BMP180;8594;52.052;8.354;2024-03-17T09:06:15;101306.00;;;20.60
16956;BMP180;8594;52.052;8.354;2024-03-17T09:08:44;101317.00;;;21.20
16956;BMP180;8594;52.052;8.354;2024-03-17T09:11:13;101316.00;;;21.40
16956;BMP180;8594;52.052;8.354;2024-03-17T09:13:40;101313.00;;;21.30
16956;BMP180;8594;52.052;8.354;2024-03-17T09:16:10;101311.00;;;21.10
16956;BMP180;8594;52.052;8.354;2024-03-17T09:18:39;101310.00;;;21.00
16956;BMP180;8594;52.052;8.354;2024-03-17T09:21:08;101297.00;;;19.60
16956;BMP180;8594;52.052;8.354;2024-03-17T09:23:36;101307.00;;;20.60
16956;BMP180;8594;52.052;8.354;2024-03-17T09:26:05;101307.00;;;20.70
16956;BMP180;8594;52.052;8.354;2024-03-17T09:28:36;101310.00;;;21.80
16956;BMP180;8594;52.052;8.354;2024-03-17T09:31:06;101301.00;;;21.60
16956;BMP180;8594;52.052;8.354;2024-03-17T09:33:34;101307.00;;;22.30
16956;BMP180;8594;52.052;8.354;2024-03-17T09:36:04;101301.00;;;22.20
16956;BMP180;8594;52.052;8.354;2024-03-17T09:38:32;101304.00;;;21.80
16956;BMP180;8594;52.052;8.354;2024-03-17T09:40:59;101306.00;;;21.10
16956;BMP180;8594;52.052;8.354;2024-03-17T09:43:27;101306.00;;;21.90
16956;BMP180;8594;52.052;8.354;2024-03-17T09:45:55;101303.00;;;21.40
16956;BMP180;8594;52.052;8.354;2024-03-17T09:48:25;101302.00;;;21.90
16956;BMP180;8594;52.052;8.354;2024-03-17T09:50:56;101308.00;;;22.20
16956;BMP180;8594;52.052;8.354;2024-03-17T09:53:25;101302.00;;;22.10
16956;BMP180;8594;52.052;8.354;2024-03-17T09:55:55;101306.00;;;21.30
16956;BMP180;8594;52.052;8.354;2024-03-17T09:58:22;101295.00;;;21.80
16956;BMP180;8594;52.052;8.354;2024-03-17T10:00:49;101301.00;;;21.40
16956;BMP180;8594;52.052;8.354;2024-03-17T10:03:43;101294.00;;;21.60
16956;BMP180;8594;52.052;8.354;2024-03-17T10:06:12;101288.00;;;21.80
16956;BMP180;8594;52.052;8.354;2024-03-17T10:08:44;101301.00;;;22.70
16956;BMP180;8594;52.052;8.354;2024-03-17T10:11:13;101299.00;;;22.80
16956;BMP180;8594;52.052;8.354;2024-03-17T10:13:41;101290.00;;;22.00
16956;BMP180;8594;52.052;8.354;2024-03-17T10:16:22;101283.00;;;21.30
16956;BMP180;8594;52.052;8.354;2024-03-17T10:19:07;101281.00;;;21.80
16956;BMP180;8594;52.052;8.354;2024-03-17T10:21:36;101281.00;;;20.60
16956;BMP180;8594;52.052;8.354;2024-03-17T10:24:09;101266.00;;;22.10
16956;BMP180;8594;52.052;8.354;2024-03-17T10:26:40;101261.00;;;20.60
16956;BMP180;8594;52.052;8.354;2024-03-17T10:29:20;101258.00;;;21.20
16956;BMP180;8594;52.052;8.354;2024-03-17T10:31:48;101265.00;;;22.40
16956;BMP180;8594;52.052;8.354;2024-03-17T10:34:16;101262.00;;;21.00
16956;BMP180;8594;52.052;8.354;2024-03-17T10:36:44;101260.00;;;20.60
16956;BMP180;8594;52.052;8.354;2024-03-17T10:39:28;101262.00;;;19.90
16956;BMP180;8594;52.052;8.354;2024-03-17T10:42:00;101262.00;;;21.00
16956;BMP180;8594;52.052;8.354;2024-03-17T10:44:27;101273.00;;;21.00
16956;BMP180;8594;52.052;8.354;2024-03-17T10:46:57;101271.00;;;21.60
16956;BMP180;8594;52.052;8.354;2024-03-17T10:49:30;101272.00;;;21.30
16956;BMP180;8594;52.052;8.354;2024-03-17T10:51:59;101278.00;;;20.60
16956;BMP180;8594;52.052;8.354;2024-03-17T10:54:27;101281.00;;;20.50
16956;BMP180;8594;52.052;8.354;2024-03-17T10:56:57;101270.00;;;21.60
16956;BMP180;8594;52.052;8.354;2024-03-17T10:59:39;101277.00;;;20.80
16956;BMP180;8594;52.052;8.354;2024-03-17T11:02:21;101272.00;;;20.90
16956;BMP180;8594;52.052;8.354;2024-03-17T11:04:57;101274.00;;;20.70
16956;BMP180;8594;52.052;8.354;2024-03-17T11:07:25;101273.00;;;19.90
16956;BMP180;8594;52.052;8.354;2024-03-17T11:09:55;101277.00;;;20.40
16956;BMP180;8594;52.052;8.354;2024-03-17T11:12:43;101279.00;;;20.00
16956;BMP180;8594;52.052;8.354;2024-03-17T11:15:39;101285.00;;;20.40
16956;BMP180;8594;52.052;8.354;2024-03-17T11:18:37;101288.00;;;20.30
16956;BMP180;8594;52.052;8.354;2024-03-17T11:21:21;101267.00;;;21.80
16956;BMP180;8594;52.052;8.354;2024-03-17T11:24:01;101278.00;;;21.70
16956;BMP180;8594;52.052;8.354;2024-03-17T11:26:31;101268.00;;;20.50
16956;BMP180;8594;52.052;8.354;2024-03-17T11:28:59;101268.00;;;20.90
16956;BMP180;8594;52.052;8.354;2024-03-17T11:31:43;101264.00;;;21.80
16956;BMP180;8594;52.052;8.354;2024-03-17T11:34:35;101263.00;;;21.80
16956;BMP180;8594;52.052;8.354;2024-03-17T11:37:04;101262.00;;;21.40
16956;BMP180;8594;52.052;8.354;2024-03-17T11:39:48;101264.00;;;21.40
16956;BMP180;8594;52.052;8.354;2024-03-17T11:42:15;101267.00;;;20.30
16956;BMP180;8594;52.052;8.354;2024-03-17T11:44:43;101268.00;;;20.10
16956;BMP180;8594;52.052;8.354;2024-03-17T11:47:10;101271.00;;;20.10
16956;BMP180;8594;52.052;8.354;2024-03-17T11:49:39;101271.00;;;20.60
16956;BMP180;8594;52.052;8.354;2024-03-17T11:52:10;101256.00;;;19.20
16956;BMP180;8594;52.052;8.354;2024-03-17T11:54:39;101263.00;;;19.50
16956;BMP180;8594;52.052;8.354;2024-03-17T11:57:07;101247.00;;;19.20
16956;BMP180;8594;52.052;8.354;2024-03-17T11:59:34;101256.00;;;20.00
16956;BMP180;8594;52.052;8.354;2024-03-17T12:02:01;101259.00;;;19.90
16956;BMP180;8594;52.052;8.354;2024-03-17T12:04:28;101246.00;;;19.60
16956;BMP180;8594;52.052;8.354;2024-03-17T12:06:56;101250.00;;;19.60
16956;BMP180;8594;52.052;8.354;2024-03-17T12:09:25;101247.00;;;19.00
16956;BMP180;8594;52.052;8.354;2024-03-17T12:11:59;101246.00;;;19.00
16956;BMP180;8594;52.052;8.354;2024-03-17T12:14:26;101242.00;;;19.20
16956;BMP180;8594;52.052;8.354;2024-03-17T12:16:54;101250.00;;;19.20
16956;BMP180;8594;52.052;8.354;2024-03-17T12:19:23;101252.00;;;19.30
16956;BMP180;8594;52.052;8.354;2024-03-17T12:21:51;101245.00;;;19.10
16956;BMP180;8594;52.052;8.354;2024-03-17T12:24:21;101238.00;;;19.70
16956;BMP180;8594;52.052;8.354;2024-03-17T12:26:50;101241.00;;;19.70
16956;BMP180;8594;52.052;8.354;2024-03-17T12:29:23;101248.00;;;19.70
16956;BMP180;8594;52.052;8.354;2024-03-17T12:31:51;101245.00;;;19.50
16956;BMP180;8594;52.052;8.354;2024-03-17T12:34:19;101238.00;;;19.40
16956;BMP180;8594;52.052;8.354;2024-03-17T12:36:46;101241.00;;;19.10
16956;BMP180;8594;52.052;8.354;2024-03-17T12:39:18;101238.00;;;18.90
16956;BMP180;8594;52.052;8.354;2024-03-17T12:41:45;101243.00;;;18.60
16956;BMP180;8594;52.052;8.354;2024-03-17T12:44:23;101247.00;;;18.20
16956;BMP180;8594;52.052;8.354;2024-03-17T12:46:55;101243.00;;;18.60
16956;BMP180;8594;52.052;8.354;2024-03-17T12:49:23;101237.00;;;18.20
16956;BMP180;8594;52.052;8.354;2024-03-17T12:51:51;101247.00;;;19.00
16956;BMP180;8594;52.052;8.354;2024-03-17T12:54:22;101244.00;;;18.70
16956;BMP180;8594;52.052;8.354;2024-03-17T12:56:49;101234.00;;;18.80
16956;BMP180;8594;52.052;8.354;2024-03-17T12:59:39;101236.00;;;19.10
16956;BMP180;8594;52.052;8.354;2024-03-17T13:02:24;101236.00;;;19.10
16956;BMP180;8594;52.052;8.354;2024-03-17T13:05:07;101228.00;;;18.80
16956;BMP180;8594;52.052;8.354;2024-03-17T13:07:35;101231.00;;;18.70
16956;BMP180;8594;52.052;8.354;2024-03-17T13:10:02;101216.00;;;19.10
16956;BMP180;8594;52.052;8.354;2024-03-17T13:12:29;101220.00;;;19.20
16956;BMP180;8594;52.052;8.354;2024-03-17T13:14:57;101209.00;;;18.70
16956;BMP180;8594;52.052;8.354;2024-03-17T13:17:27;101205.00;;;18.70
16956;BMP180;8594;52.052;8.354;2024-03-17T13:19:56;101205.00;;;18.20
16956;BMP180;8594;52.052;8.354;2024-03-17T13:22:22;101204.00;;;18.30
16956;BMP180;8594;52.052;8.354;2024-03-17T13:24:49;101204.00;;;18.60
16956;BMP180;8594;52.052;8.354;2024-03-17T13:27:16;101194.00;;;18.40
16956;BMP180;8594;52.052;8.354;2024-03-17T13:29:47;101194.00;;;18.50
16956;BMP180;8594;52.052;8.354;2024-03-17T13:32:16;101174.00;;;18.20
16956;BMP180;8594;52.052;8.354;2024-03-17T13:34:43;101174.00;;;18.10
16956;BMP180;8594;52.052;8.354;2024-03-17T13:37:11;101180.00;;;18.00
16956;BMP180;8594;52.052;8.354;2024-03-17T13:39:38;101170.00;;;18.40
16956;BMP180;8594;52.052;8.354;2024-03-17T13:42:05;101175.00;;;18.50
16956;BMP180;8594;52.052;8.354;2024-03-17T13:44:33;101167.00;;;18.60
16956;BMP180;8594;52.052;8.354;2024-03-17T13:47:00;101167.00;;;18.00
16956;BMP180;8594;52.052;8.354;2024-03-17T13:49:30;101167.00;;;18.10
16956;BMP180;8594;52.052;8.354;2024-03-17T13:51:57;101168.00;;;18.50
16956;BMP180;8594;52.052;8.354;2024-03-17T13:54:23;101149.00;;;18.10
16956;BMP180;8594;52.052;8.354;2024-03-17T13:56:50;101152.00;;;17.80
16956;BMP180;8594;52.052;8.354;2024-03-17T13:59:17;101149.00;;;17.60
16956;BMP180;8594;52.052;8.354;2024-03-17T14:01:44;101145.00;;;18.40
16956;BMP180;8594;52.052;8.354;2024-03-17T14:04:14;101146.00;;;18.50
16956;BMP180;8594;52.052;8.354;2024-03-17T14:06:45;101143.00;;;17.10
16956;BMP180;8594;52.052;8.354;2024-03-17T14:09:15;101140.00;;;17.90
16956;BMP180;8594;52.052;8.354;2024-03-17T14:11:43;101139.00;;;18.20
16956;BMP180;8594;52.052;8.354;2024-03-17T14:14:11;101138.00;;;17.60
16956;BMP180;8594;52.052;8.354;2024-03-17T14:16:38;101134.00;;;17.90
16956;BMP180;8594;52.052;8.354;2024-03-17T14:19:06;101135.00;;;18.20
16956;BMP180;8594;52.052;8.354;2024-03-17T14:21:33;101134.00;;;17.80
16956;BMP180;8594;52.052;8.354;2024-03-17T14:24:01;101130.00;;;18.60